createdAt,value
2018-02-23T00:01:52.352Z,7.37
2018-02-23T00:04:20.532Z,7.93
2018-02-23T00:06:48.601Z,7.30
2018-02-23T00:09:16.776Z,7.40
2018-02-23T00:11:44.955Z,7.50
2018-02-23T00:14:13.129Z,6.60
2018-02-23T00:16:42.633Z,8.25
2018-02-23T00:19:10.567Z,8.48
2018-02-23T00:21:38.561Z,8.45
2018-02-23T00:24:06.630Z,7.20
2018-02-23T00:26:34.706Z,8.48
2018-02-23T00:29:02.880Z,8.05
2018-02-23T00:31:31.048Z,7.80
2018-02-23T00:33:59.118Z,8.45
2018-02-23T00:36:27.306Z,7.45
2018-02-23T00:38:55.875Z,7.80
2018-02-23T00:41:23.946Z,7.95
2018-02-23T00:43:52.124Z,7.75
2018-02-23T00:46:20.292Z,19.23
2018-02-23T00:48:48.376Z,19.75
2018-02-23T00:51:16.650Z,22.90
2018-02-23T00:53:44.816Z,22.40
2018-02-23T00:56:13.000Z,21.12
2018-02-23T00:58:41.159Z,20.55
2018-02-23T01:01:09.339Z,23.33
2018-02-23T01:03:37.409Z,23.30
2018-02-23T01:06:05.581Z,25.67
2018-02-23T01:08:33.754Z,25.08
2018-02-23T01:11:01.930Z,25.65
2018-02-23T01:13:29.999Z,25.88
2018-02-23T01:15:58.991Z,29.45
2018-02-23T01:18:26.961Z,26.37
2018-02-23T01:20:55.033Z,27.60
2018-02-23T01:23:23.208Z,29.75
2018-02-23T01:25:51.169Z,26.75
2018-02-23T01:28:19.348Z,28.92
2018-02-23T01:30:47.531Z,27.75
2018-02-23T01:33:15.608Z,28.62
2018-02-23T01:35:43.593Z,24.42
2018-02-23T01:38:11.732Z,26.23
2018-02-23T01:40:40.635Z,28.02
2018-02-23T01:43:08.807Z,28.98
2018-02-23T01:45:37.082Z,28.05
2018-02-23T01:48:05.253Z,25.77
2018-02-23T01:50:45.300Z,28.75
2018-02-23T01:53:13.327Z,28.23
2018-02-23T01:55:41.449Z,28.50
2018-02-23T01:58:09.615Z,29.50
2018-02-23T02:00:37.796Z,30.00
2018-02-23T02:03:05.963Z,28.60
2018-02-23T02:05:34.144Z,28.30
2018-02-23T02:08:02.320Z,32.42
2018-02-23T02:10:30.273Z,31.30
2018-02-23T02:12:58.455Z,29.73
2018-02-23T02:15:26.522Z,31.60
2018-02-23T02:17:54.602Z,30.40
2018-02-23T02:20:23.378Z,29.95
2018-02-23T02:22:51.657Z,31.35
2018-02-23T02:25:19.840Z,29.65
2018-02-23T02:27:48.005Z,28.92
2018-02-23T02:30:16.187Z,30.70
2018-02-23T02:32:44.367Z,29.17
2018-02-23T02:35:12.526Z,28.70
2018-02-23T02:37:40.706Z,26.50
2018-02-23T02:40:09.589Z,29.17
2018-02-23T02:42:38.385Z,28.40
2018-02-23T02:45:06.546Z,29.52
2018-02-23T02:47:34.520Z,25.37
2018-02-23T02:50:02.700Z,26.05
2018-02-23T02:52:30.864Z,25.50
2018-02-23T02:54:59.046Z,29.08
2018-02-23T02:57:27.214Z,25.73
2018-02-23T02:59:55.406Z,25.90
2018-02-23T03:02:24.171Z,24.37
2018-02-23T03:04:52.242Z,25.58
2018-02-23T03:07:20.417Z,21.55
2018-02-23T03:09:48.485Z,23.12
2018-02-23T03:12:16.557Z,19.70
2018-02-23T03:14:51.106Z,19.25
2018-02-23T03:17:19.868Z,21.17
2018-02-23T03:19:48.052Z,21.75
2018-02-23T03:22:16.328Z,21.05
2018-02-23T03:24:44.503Z,21.42
2018-02-23T03:27:12.778Z,18.80
2018-02-23T03:29:41.350Z,21.70
2018-02-23T03:32:09.424Z,21.80
2018-02-23T03:34:37.492Z,21.87
2018-02-23T03:37:06.381Z,21.70
2018-02-23T03:39:34.452Z,18.98
2018-02-23T03:42:02.638Z,22.25
2018-02-23T03:44:30.802Z,20.23
2018-02-23T03:46:58.984Z,19.58
2018-02-23T03:49:27.152Z,20.48
2018-02-23T03:51:55.331Z,20.45
2018-02-23T03:54:23.495Z,21.92
2018-02-23T03:56:52.394Z,20.05
2018-02-23T03:59:20.455Z,19.70
2018-02-23T04:01:48.524Z,20.75
2018-02-23T04:04:16.712Z,20.27
2018-02-23T04:06:44.883Z,20.70
2018-02-23T04:09:12.799Z,20.75
2018-02-23T04:11:40.911Z,19.92
2018-02-23T04:14:08.995Z,22.00
2018-02-23T04:16:37.167Z,20.70
2018-02-23T04:19:05.227Z,21.48
2018-02-23T04:21:34.116Z,20.23
2018-02-23T04:24:02.291Z,20.10
2018-02-23T04:26:30.476Z,20.48
2018-02-23T04:28:58.651Z,20.65
2018-02-23T04:31:26.825Z,20.27
2018-02-23T04:33:54.997Z,22.90
2018-02-23T04:36:23.040Z,21.30
2018-02-23T04:38:51.027Z,23.12
2018-02-23T04:41:19.208Z,21.87
2018-02-23T04:43:47.383Z,22.15
2018-02-23T04:46:15.344Z,24.80
2018-02-23T04:48:43.506Z,22.02
2018-02-23T04:51:11.585Z,21.85
2018-02-23T04:53:39.656Z,22.37
2018-02-23T04:56:08.049Z,24.05
2018-02-23T04:58:36.322Z,19.87
2018-02-23T05:01:04.500Z,21.17
2018-02-23T05:03:32.657Z,21.75
2018-02-23T05:06:01.551Z,22.67
2018-02-23T05:08:29.618Z,20.70
2018-02-23T05:10:57.692Z,21.70
2018-02-23T05:13:25.762Z,20.77
2018-02-23T05:15:53.833Z,22.35
2018-02-23T05:18:21.903Z,20.48
2018-02-23T05:20:50.079Z,19.85
2018-02-23T05:23:18.252Z,21.33
2018-02-23T05:25:46.320Z,23.02
2018-02-23T05:28:14.390Z,21.85
2018-02-23T05:30:42.463Z,23.62
2018-02-23T05:33:10.638Z,20.52
2018-02-23T05:35:38.711Z,23.20
2018-02-23T05:38:06.778Z,21.27
2018-02-23T05:40:35.328Z,41.58
2018-02-23T05:43:03.444Z,20.55
2018-02-23T05:45:31.503Z,20.55
2018-02-23T05:47:59.679Z,23.00
2018-02-23T05:50:27.853Z,20.42
2018-02-23T05:52:56.146Z,20.77
2018-02-23T05:55:25.021Z,22.23
2018-02-23T05:57:53.005Z,29.65
2018-02-23T06:00:21.055Z,24.25
2018-02-23T06:02:49.957Z,65.60
2018-02-23T06:05:18.017Z,53.58
2018-02-23T06:07:46.193Z,39.42
2018-02-23T06:10:14.730Z,92.20
2018-02-23T06:12:42.706Z,50.65
2018-02-23T06:15:10.824Z,52.95
2018-02-23T06:17:44.392Z,48.95
2018-02-23T06:20:12.600Z,44.00
2018-02-23T06:22:40.662Z,56.30
2018-02-23T06:25:08.831Z,62.72
2018-02-23T06:27:36.902Z,64.55
2018-02-23T06:30:04.982Z,39.13
2018-02-23T06:32:33.262Z,48.72
2018-02-23T06:35:01.436Z,43.92
2018-02-23T06:37:30.314Z,38.97
2018-02-23T06:39:58.385Z,37.65
2018-02-23T06:42:26.456Z,22.08
2018-02-23T06:44:54.637Z,31.55
2018-02-23T06:47:22.700Z,26.10
2018-02-23T06:49:50.879Z,27.70
2018-02-23T06:52:18.945Z,22.25
2018-02-23T06:54:47.123Z,22.13
2018-02-23T06:57:15.307Z,21.15
2018-02-23T06:59:43.477Z,21.00
2018-02-23T07:02:12.971Z,20.42
2018-02-23T07:04:41.168Z,31.40
2018-02-23T07:07:10.046Z,32.28
2018-02-23T07:09:38.207Z,38.95
2018-02-23T07:12:06.278Z,35.42
2018-02-23T07:14:34.964Z,40.28
2018-02-23T07:17:03.037Z,21.50
2018-02-23T07:19:31.920Z,62.78
2018-02-23T07:22:00.001Z,56.35
2018-02-23T07:24:28.796Z,47.45
2018-02-23T07:26:56.856Z,21.48
2018-02-23T07:29:24.939Z,18.60
2018-02-23T07:31:52.907Z,18.02
2018-02-23T07:34:21.071Z,17.90
2018-02-23T07:36:49.141Z,19.00
2018-02-23T07:39:17.211Z,18.05
2018-02-23T07:41:45.294Z,17.12
2018-02-23T07:44:13.467Z,19.67
2018-02-23T07:46:41.527Z,18.80
2018-02-23T07:49:09.604Z,20.33
2018-02-23T07:51:37.668Z,18.98
2018-02-23T07:54:05.855Z,20.05
2018-02-23T07:56:34.018Z,18.12
2018-02-23T07:59:02.193Z,20.58
2018-02-23T08:01:30.364Z,21.10
2018-02-23T08:03:59.162Z,21.12
2018-02-23T08:06:27.338Z,23.15
2018-02-23T08:08:55.509Z,20.12
2018-02-23T08:11:23.784Z,20.65
2018-02-23T08:13:51.948Z,20.17
2018-02-23T08:16:20.016Z,19.73
2018-02-23T08:18:48.090Z,20.98
2018-02-23T08:21:16.159Z,20.30
2018-02-23T08:23:44.236Z,20.50
2018-02-23T08:26:12.402Z,23.33
2018-02-23T08:28:40.479Z,21.17
2018-02-23T08:31:08.545Z,21.12
2018-02-23T08:33:36.620Z,21.77
2018-02-23T08:36:05.622Z,22.55
2018-02-23T08:38:33.786Z,23.92
2018-02-23T08:41:01.752Z,23.23
2018-02-23T08:43:30.851Z,24.75
2018-02-23T08:45:59.033Z,23.85
2018-02-23T08:48:27.092Z,20.90
2018-02-23T08:50:55.162Z,24.92
2018-02-23T08:53:23.247Z,24.98
2018-02-23T08:55:51.304Z,24.67
2018-02-23T08:58:19.382Z,24.77
2018-02-23T09:00:48.575Z,23.67
2018-02-23T09:03:17.667Z,23.12
2018-02-23T09:05:45.636Z,22.85
2018-02-23T09:08:13.709Z,24.23
2018-02-23T09:10:41.778Z,23.90
2018-02-23T09:13:09.957Z,23.02
2018-02-23T09:15:38.137Z,21.15
2018-02-23T09:18:06.196Z,23.05
2018-02-23T09:20:34.280Z,19.95
2018-02-23T09:23:02.447Z,22.40
2018-02-23T09:25:30.619Z,20.65
2018-02-23T09:27:58.583Z,21.95
2018-02-23T09:30:26.756Z,22.55
2018-02-23T09:32:57.911Z,21.08
2018-02-23T09:35:26.079Z,23.02
2018-02-23T09:37:54.149Z,21.67
2018-02-23T09:40:22.112Z,22.27
2018-02-23T09:42:50.189Z,23.77
2018-02-23T09:45:18.370Z,21.77
2018-02-23T09:47:46.433Z,21.62
2018-02-23T09:50:15.171Z,22.92
2018-02-23T09:52:44.003Z,21.67
2018-02-23T09:55:12.182Z,22.50
2018-02-23T09:57:41.275Z,21.50
2018-02-23T10:00:09.461Z,22.73
2018-02-23T10:02:37.626Z,22.23
2018-02-23T10:05:05.805Z,23.15
2018-02-23T10:07:33.867Z,21.70
2018-02-23T10:10:01.938Z,22.98
2018-02-23T10:12:30.222Z,24.70
2018-02-23T10:14:58.389Z,23.62
2018-02-23T10:17:26.457Z,22.77
2018-02-23T10:19:55.345Z,23.70
2018-02-23T10:22:23.315Z,23.92
2018-02-23T10:24:51.500Z,24.15
2018-02-23T10:27:19.559Z,23.87
2018-02-23T10:29:47.629Z,23.50
2018-02-23T10:32:16.627Z,24.45
2018-02-23T10:34:44.809Z,27.05
2018-02-23T10:37:12.767Z,27.70
2018-02-23T10:39:40.949Z,26.05
2018-02-23T10:42:09.119Z,25.50
2018-02-23T10:44:38.014Z,24.95
2018-02-23T10:47:06.290Z,24.20
2018-02-23T10:49:34.348Z,26.60
2018-02-23T10:52:02.420Z,25.12
2018-02-23T10:54:30.495Z,27.90
2018-02-23T10:56:58.779Z,24.33
2018-02-23T10:59:26.940Z,28.70
2018-02-23T11:01:55.119Z,25.05
2018-02-23T11:04:23.287Z,23.98
2018-02-23T11:06:51.472Z,24.12
2018-02-23T11:09:19.543Z,25.55
2018-02-23T11:11:47.607Z,24.90
2018-02-23T11:14:15.775Z,25.55
2018-02-23T11:16:43.745Z,25.92
2018-02-23T11:19:11.822Z,26.23
2018-02-23T11:21:39.887Z,27.83
2018-02-23T11:24:08.063Z,26.08
2018-02-23T11:26:36.135Z,25.67
2018-02-23T11:29:05.125Z,23.85
2018-02-23T11:31:33.309Z,26.92
2018-02-23T11:34:01.478Z,26.23
2018-02-23T11:36:29.439Z,23.00
2018-02-23T11:38:57.625Z,24.17
2018-02-23T11:41:25.685Z,23.55
2018-02-23T11:43:53.653Z,23.30
2018-02-23T11:46:21.621Z,24.10
2018-02-23T11:48:49.843Z,23.98
2018-02-23T11:51:18.688Z,23.33
2018-02-23T11:53:46.757Z,22.25
2018-02-23T11:56:14.942Z,23.75
2018-02-23T11:58:44.435Z,23.15
2018-02-23T12:01:12.613Z,23.00
2018-02-23T12:03:40.691Z,25.12
2018-02-23T12:06:08.852Z,24.30
2018-02-23T12:08:37.031Z,23.73
2018-02-23T12:11:05.097Z,24.02
2018-02-23T12:13:33.168Z,27.30
2018-02-23T12:16:01.139Z,25.80
2018-02-23T12:18:29.104Z,26.17
2018-02-23T12:20:57.176Z,28.08
2018-02-23T12:23:25.146Z,29.73
2018-02-23T12:25:53.331Z,31.62
2018-02-23T12:28:21.524Z,29.05
2018-02-23T12:30:50.387Z,31.77
2018-02-23T12:33:18.670Z,31.80
2018-02-23T12:35:46.834Z,31.50
2018-02-23T12:38:15.020Z,33.13
2018-02-23T12:40:43.294Z,35.45
2018-02-23T12:43:11.460Z,35.53
2018-02-23T12:45:39.639Z,34.58
2018-02-23T12:48:07.702Z,34.17
2018-02-23T12:50:35.777Z,34.85
2018-02-23T12:53:03.956Z,37.17
2018-02-23T12:55:32.027Z,46.47
2018-02-23T12:58:00.877Z,327.25
2018-02-23T13:00:28.979Z,278.25
2018-02-23T13:02:57.155Z,157.62
2018-02-23T13:05:25.221Z,42.47
2018-02-23T13:07:53.292Z,50.63
2018-02-23T13:10:21.579Z,97.55
2018-02-23T13:12:49.753Z,46.78
2018-02-23T13:15:19.865Z,70.97
2018-02-23T13:17:47.841Z,45.08
2018-02-23T13:20:16.004Z,59.47
2018-02-23T13:22:44.078Z,53.25
2018-02-23T13:25:12.258Z,50.35
2018-02-23T13:27:40.420Z,37.65
2018-02-23T13:30:08.598Z,44.55
2018-02-23T13:32:36.788Z,36.88
2018-02-23T13:35:04.838Z,36.10
2018-02-23T13:37:33.016Z,35.35
2018-02-23T13:40:01.197Z,34.53
2018-02-23T13:42:30.075Z,36.25
2018-02-23T13:44:58.149Z,35.85
2018-02-23T13:47:26.433Z,40.03
2018-02-23T13:49:54.710Z,43.42
2018-02-23T13:52:22.883Z,51.95
2018-02-23T13:54:53.926Z,43.08
2018-02-23T13:57:21.983Z,47.05
2018-02-23T13:59:50.156Z,39.42
2018-02-23T14:02:18.334Z,42.70
2018-02-23T14:04:46.507Z,61.37
2018-02-23T14:07:20.213Z,93.57
2018-02-23T14:09:49.317Z,60.35
2018-02-23T14:12:18.095Z,86.65
2018-02-23T14:14:46.378Z,65.47
2018-02-23T14:17:14.540Z,116.50
2018-02-23T14:19:42.718Z,132.63
2018-02-23T14:22:10.788Z,51.13
2018-02-23T14:24:38.959Z,87.32
2018-02-23T14:27:07.132Z,58.58
2018-02-23T14:29:35.100Z,45.20
2018-02-23T14:32:03.219Z,40.25
2018-02-23T14:34:31.244Z,40.78
2018-02-23T14:36:59.529Z,36.40
2018-02-23T14:39:27.793Z,35.00
2018-02-23T14:41:55.972Z,31.85
2018-02-23T14:44:24.145Z,35.58
2018-02-23T14:46:52.318Z,31.23
2018-02-23T14:49:20.601Z,37.60
2018-02-23T14:51:48.762Z,36.38
2018-02-23T14:54:16.834Z,33.90
2018-02-23T14:56:45.011Z,36.85
2018-02-23T14:59:13.182Z,36.13
2018-02-23T15:01:41.368Z,36.40
2018-02-23T15:04:09.539Z,37.08
2018-02-23T15:06:39.140Z,40.88
2018-02-23T15:09:07.321Z,172.60
2018-02-23T15:11:35.495Z,89.25
2018-02-23T15:14:03.661Z,62.10
2018-02-23T15:16:32.343Z,50.72
2018-02-23T15:19:00.411Z,62.78
2018-02-23T15:21:28.590Z,44.97
2018-02-23T15:23:56.655Z,47.85
2018-02-23T15:26:24.834Z,40.85
2018-02-23T15:28:52.900Z,49.65
2018-02-23T15:31:32.964Z,36.78
2018-02-23T15:34:01.746Z,35.75
2018-02-23T15:36:29.929Z,31.10
2018-02-23T15:38:58.146Z,43.63
2018-02-23T15:41:26.265Z,43.22
2018-02-23T15:43:54.456Z,36.58
2018-02-23T15:46:23.333Z,37.83
2018-02-23T15:49:11.056Z,40.05
2018-02-23T15:51:53.979Z,44.20
2018-02-23T15:54:22.154Z,54.80
2018-02-23T15:56:50.326Z,45.03
2018-02-23T15:59:18.496Z,76.62
2018-02-23T16:01:46.681Z,274.98
2018-02-23T16:04:14.843Z,139.93
2018-02-23T16:06:43.133Z,146.07
2018-02-23T16:09:11.407Z,135.40
2018-02-23T16:11:39.683Z,152.75
2018-02-23T16:14:07.958Z,234.15
2018-02-23T16:16:36.132Z,107.50
2018-02-23T16:19:04.299Z,317.33
2018-02-23T16:21:32.377Z,316.15
2018-02-23T16:24:00.643Z,122.22
2018-02-23T16:26:29.329Z,124.55
2018-02-23T16:28:58.114Z,121.10
2018-02-23T16:31:26.300Z,43.22
2018-02-23T16:33:54.473Z,48.53
2018-02-23T16:36:22.534Z,191.48
2018-02-23T16:38:50.605Z,79.03
2018-02-23T16:41:18.777Z,30.15
2018-02-23T16:43:46.846Z,31.20
2018-02-23T16:46:15.025Z,19.25
2018-02-23T16:48:43.194Z,25.60
2018-02-23T16:51:11.266Z,28.70
2018-02-23T16:53:39.554Z,30.15
2018-02-23T16:56:07.828Z,64.68
2018-02-23T16:58:35.786Z,39.13
2018-02-23T17:01:03.966Z,30.50
2018-02-23T17:03:32.248Z,26.73
2018-02-23T17:06:01.033Z,19.45
2018-02-23T17:08:29.209Z,17.50
2018-02-23T17:10:57.483Z,21.27
2018-02-23T17:13:25.752Z,17.83
2018-02-23T17:15:53.920Z,23.48
2018-02-23T17:18:22.004Z,24.30
2018-02-23T17:20:50.063Z,28.33
2018-02-23T17:23:18.239Z,26.70
2018-02-23T17:25:47.276Z,45.90
2018-02-23T17:28:15.512Z,36.42
2018-02-23T17:30:43.576Z,24.92
2018-02-23T17:33:12.363Z,32.75
2018-02-23T17:35:40.492Z,30.25
2018-02-23T17:38:08.614Z,34.58
2018-02-23T17:40:36.679Z,68.47
2018-02-23T17:43:04.649Z,32.40
2018-02-23T17:45:32.725Z,39.17
2018-02-23T17:48:00.892Z,35.45
2018-02-23T17:50:29.067Z,31.25
2018-02-23T17:52:57.138Z,30.73
2018-02-23T17:55:25.528Z,36.28
2018-02-23T17:57:53.691Z,32.88
2018-02-23T18:00:21.868Z,29.55
2018-02-23T18:02:49.946Z,24.75
2018-02-23T18:05:18.111Z,34.22
2018-02-23T18:07:46.285Z,20.05
2018-02-23T18:10:14.454Z,33.95
2018-02-23T18:12:42.643Z,28.12
2018-02-23T18:15:10.702Z,25.08
2018-02-23T18:17:38.871Z,37.17
2018-02-23T18:20:06.775Z,30.98
2018-02-23T18:22:35.634Z,43.63
2018-02-23T18:25:05.236Z,36.78
2018-02-23T18:27:33.413Z,36.83
2018-02-23T18:30:01.583Z,26.45
2018-02-23T18:32:29.768Z,21.48
2018-02-23T18:34:57.930Z,19.58
2018-02-23T18:37:26.103Z,17.83
2018-02-23T18:39:54.587Z,18.90
2018-02-23T18:42:22.653Z,18.02
2018-02-23T18:44:50.730Z,17.45
2018-02-23T18:47:18.898Z,16.77
2018-02-23T18:49:47.188Z,16.30
2018-02-23T18:52:15.363Z,16.55
2018-02-23T18:54:44.241Z,14.90
2018-02-23T18:57:13.300Z,17.45
2018-02-23T18:59:42.227Z,16.05
2018-02-23T19:02:10.400Z,15.02
2018-02-23T19:04:38.471Z,18.40
2018-02-23T19:07:06.747Z,18.23
2018-02-23T19:09:35.333Z,17.75
2018-02-23T19:12:04.014Z,20.10
2018-02-23T19:14:32.190Z,20.05
2018-02-23T19:17:00.473Z,19.85
2018-02-23T19:19:28.635Z,20.10
2018-02-23T19:21:56.706Z,20.52
2018-02-23T19:24:24.883Z,18.75
2018-02-23T19:26:53.057Z,22.65
2018-02-23T19:29:21.847Z,22.55
2018-02-23T19:36:58.665Z,22.45
2018-02-23T19:39:26.585Z,24.58
2018-02-23T19:41:54.891Z,24.52
2018-02-23T19:44:35.778Z,24.73
2018-02-23T19:49:37.438Z,23.15
2018-02-23T19:52:05.575Z,21.33
2018-02-23T19:54:33.693Z,23.67
2018-02-23T19:57:01.961Z,21.90
2018-02-23T19:59:30.245Z,21.10
2018-02-23T20:02:14.238Z,21.85
2018-02-23T20:04:42.249Z,21.92
2018-02-23T20:07:13.289Z,21.12
2018-02-23T20:09:41.371Z,20.60
2018-02-23T20:12:18.761Z,19.83
2018-02-23T20:14:46.928Z,19.70
2018-02-23T20:17:15.101Z,20.05
2018-02-23T20:19:43.269Z,18.62
2018-02-23T20:22:11.448Z,17.67
2018-02-23T20:24:39.515Z,17.58
2018-02-23T20:27:07.690Z,16.77
2018-02-23T20:29:36.589Z,18.27
2018-02-23T20:32:04.764Z,15.60
2018-02-23T20:34:43.779Z,19.98
2018-02-23T20:37:11.955Z,18.27
2018-02-23T20:39:40.036Z,17.30
2018-02-23T20:42:23.151Z,20.33
2018-02-23T20:44:51.429Z,20.42
2018-02-23T20:47:21.409Z,20.48
2018-02-23T20:49:49.618Z,19.77
2018-02-23T20:52:23.757Z,20.37
2018-02-23T20:57:33.899Z,19.77
2018-02-23T21:00:05.406Z,21.30
2018-02-23T21:02:33.526Z,19.23
2018-02-23T21:05:01.808Z,20.12
2018-02-23T21:07:29.975Z,23.90
2018-02-23T21:09:58.147Z,22.55
2018-02-23T21:12:26.329Z,21.20
2018-02-23T21:14:54.286Z,21.17
2018-02-23T21:17:22.254Z,23.25
2018-02-23T21:19:50.952Z,21.20
2018-02-23T21:22:18.911Z,22.75
2018-02-23T21:24:47.084Z,23.52
2018-02-23T21:27:15.369Z,22.00
2018-02-23T21:29:43.470Z,22.55
2018-02-23T21:32:12.323Z,22.80
2018-02-23T21:34:40.396Z,24.33
2018-02-23T21:37:08.568Z,22.50
2018-02-23T21:39:36.646Z,22.70
2018-02-23T21:42:04.823Z,21.75
2018-02-23T21:44:50.594Z,22.77
2018-02-23T21:47:18.976Z,21.70
2018-02-23T21:49:47.057Z,22.25
2018-02-23T21:52:15.323Z,22.52
2018-02-23T21:54:43.391Z,22.95
2018-02-23T21:57:11.463Z,23.73
2018-02-23T21:59:40.352Z,23.95
2018-02-23T22:02:08.640Z,24.12
2018-02-23T22:04:36.704Z,26.75
2018-02-23T22:07:04.770Z,26.10
2018-02-23T22:09:32.738Z,25.15
2018-02-23T22:12:00.814Z,26.25
2018-02-23T22:14:29.202Z,24.20
2018-02-23T22:16:57.475Z,24.50
2018-02-23T22:19:25.649Z,26.80
2018-02-23T22:21:53.824Z,22.33
2018-02-23T22:24:22.502Z,26.37
2018-02-23T22:26:50.573Z,25.45
2018-02-23T22:29:19.458Z,24.00
2018-02-23T22:31:47.746Z,24.70
2018-02-23T22:34:15.918Z,25.65
2018-02-23T22:36:44.195Z,25.62
2018-02-23T22:39:12.200Z,24.80
2018-02-23T22:41:40.222Z,23.70
2018-02-23T22:44:08.297Z,24.73
2018-02-23T22:46:36.377Z,23.17
2018-02-23T22:49:04.435Z,25.27
2018-02-23T22:51:32.567Z,25.70
2018-02-23T22:54:00.684Z,25.20
2018-02-23T22:56:30.292Z,24.98
2018-02-23T22:58:58.371Z,22.08
2018-02-23T23:01:26.538Z,23.42
2018-02-23T23:03:54.718Z,23.62
2018-02-23T23:06:22.753Z,23.27
2018-02-23T23:08:50.963Z,23.05
2018-02-23T23:11:19.124Z,21.85
2018-02-23T23:13:47.091Z,24.37
2018-02-23T23:16:15.270Z,21.10
2018-02-23T23:18:43.336Z,23.33
2018-02-23T23:21:11.407Z,21.37
2018-02-23T23:23:39.376Z,21.60
2018-02-23T23:26:07.451Z,22.15
2018-02-23T23:28:35.633Z,21.83
2018-02-23T23:31:03.697Z,21.02
2018-02-23T23:33:31.763Z,21.55
2018-02-23T23:35:59.837Z,20.00
2018-02-23T23:38:28.009Z,21.73
2018-02-23T23:40:56.083Z,21.12
2018-02-23T23:43:24.253Z,20.25
2018-02-23T23:45:53.352Z,21.45
2018-02-23T23:48:21.270Z,20.52
2018-02-23T23:50:49.285Z,21.55
2018-02-23T23:53:18.189Z,21.17
2018-02-23T23:55:46.247Z,20.52
2018-02-23T23:58:14.421Z,19.55
